Metar Aviation Weather Data KPBI Palm Beach International

70°F Temp
61°F Dewpoint
73% Humidity
Temperature
12 MPH
19 KM/H
10 KTS
110°
East South
East

Wind Speed
Mostly Scattered
Clouds
Pressure 1020.4 (hPa) - 30.14 (in)
Visibility 10.0 (mi) - 16.1 (km)

Current Conditions
KPBI
Palm Beach International
Metar :KPBI 131053Z 11010KT 10SM SCT038 SCT050 OVC065 21/16 A3014 RMK AO2 RAE06 SLP204 P0001 T02110161
Thu 13th December 06:53 am

Palm Beach International
  Metar Aviation API Data Provided by https://www.checkwx.com/ PHP scripts by weather34.com ©2018